createdAt,value
2017-02-22T00:00:05.288Z,1004.09
2017-02-22T00:01:17.981Z,1004.11
2017-02-22T00:02:31.049Z,1004.13
2017-02-22T00:03:43.967Z,1004.07
2017-02-22T00:04:56.642Z,1004.04
2017-02-22T00:06:09.733Z,1004
2017-02-22T00:07:22.809Z,1003.93
2017-02-22T00:08:35.854Z,1003.88
2017-02-22T00:09:48.896Z,1003.86
2017-02-22T00:11:01.555Z,1003.81
2017-02-22T00:12:14.259Z,1003.75
2017-02-22T00:13:27.330Z,1003.72
2017-02-22T00:14:40.408Z,1003.69
2017-02-22T00:15:53.479Z,1003.65
2017-02-22T00:17:06.529Z,1003.64
2017-02-22T00:18:19.580Z,1003.63
2017-02-22T00:19:32.638Z,1003.58
2017-02-22T00:20:45.938Z,1003.58
2017-02-22T00:21:58.613Z,1003.55
2017-02-22T00:23:11.653Z,1003.51
2017-02-22T00:24:23.970Z,1003.53
2017-02-22T00:25:37.049Z,1003.52
2017-02-22T00:26:49.721Z,1003.45
2017-02-22T00:28:02.830Z,1003.44
2017-02-22T00:29:15.483Z,1003.4
2017-02-22T00:30:28.550Z,1003.42
2017-02-22T00:31:41.604Z,1003.45
2017-02-22T00:32:54.646Z,1003.45
2017-02-22T00:34:07.696Z,1003.45
2017-02-22T00:35:20.368Z,1003.36
2017-02-22T00:36:33.412Z,1003.35
2017-02-22T00:37:46.089Z,1003.42
2017-02-22T00:38:58.768Z,1003.36
2017-02-22T00:40:11.871Z,1003.3
2017-02-22T00:41:24.901Z,1003.27
2017-02-22T00:42:37.598Z,1003.27
2017-02-22T00:43:50.662Z,1003.19
2017-02-22T00:45:03.750Z,1003.17
2017-02-22T00:46:16.421Z,1003.15
2017-02-22T00:47:29.114Z,1003.09
2017-02-22T00:48:42.200Z,1003.07
2017-02-22T00:49:55.267Z,1003.07
2017-02-22T00:51:07.958Z,1003.03
2017-02-22T00:52:20.982Z,1003.01
2017-02-22T00:53:34.005Z,1003.05
2017-02-22T00:54:47.047Z,1003.06
2017-02-22T00:56:00.067Z,1003.06
2017-02-22T00:57:12.742Z,1002.94
2017-02-22T00:58:25.409Z,1002.93
2017-02-22T00:59:38.490Z,1002.9
2017-02-22T01:00:51.193Z,1002.93
2017-02-22T01:02:04.251Z,1002.91
2017-02-22T01:03:16.917Z,1002.88
2017-02-22T01:04:30.047Z,1002.83
2017-02-22T01:05:43.114Z,1002.81
2017-02-22T01:06:56.174Z,1002.74
2017-02-22T01:08:09.231Z,1002.7
2017-02-22T01:09:22.275Z,1002.64
2017-02-22T01:10:35.389Z,1002.54
2017-02-22T01:11:48.093Z,1002.46
2017-02-22T01:13:01.160Z,1002.46
2017-02-22T01:14:14.227Z,1002.44
2017-02-22T01:15:27.297Z,1002.37
2017-02-22T01:16:40.351Z,1002.31
2017-02-22T01:17:53.439Z,1002.29
2017-02-22T01:19:06.520Z,1002.24
2017-02-22T01:20:19.451Z,1002.19
2017-02-22T01:21:32.559Z,1002.16
2017-02-22T01:22:45.647Z,1002.1
2017-02-22T01:23:58.681Z,1002.05
2017-02-22T01:25:11.739Z,1002.03
2017-02-22T01:26:24.417Z,1001.93
2017-02-22T01:27:37.527Z,1001.99
2017-02-22T01:28:50.585Z,1001.97
2017-02-22T01:30:03.625Z,1001.94
2017-02-22T01:31:15.924Z,1001.88
2017-02-22T01:32:28.589Z,1001.81
2017-02-22T01:33:41.618Z,1001.78
2017-02-22T01:34:54.335Z,1001.77
2017-02-22T01:36:07.426Z,1001.7
2017-02-22T01:37:20.503Z,1001.64
2017-02-22T01:38:33.552Z,1001.59
2017-02-22T01:39:46.614Z,1001.56
2017-02-22T01:40:59.663Z,1001.51
2017-02-22T01:42:12.727Z,1001.48
2017-02-22T01:43:25.810Z,1001.46
2017-02-22T01:44:38.856Z,1001.41
2017-02-22T01:45:51.902Z,1001.36
2017-02-22T01:47:05.219Z,1001.35
2017-02-22T01:48:18.318Z,1001.28
2017-02-22T01:49:31.363Z,1001.28
2017-02-22T01:50:44.435Z,1001.23
2017-02-22T01:51:57.501Z,1001.22
2017-02-22T01:53:10.626Z,1001.14
2017-02-22T01:54:23.671Z,1001.13
2017-02-22T01:55:36.734Z,1001.11
2017-02-22T01:56:49.455Z,1001.12
2017-02-22T01:58:02.756Z,1001.09
2017-02-22T01:59:15.820Z,1001.08
2017-02-22T02:00:28.901Z,1001.05
2017-02-22T02:01:41.945Z,1001.01
2017-02-22T02:02:54.982Z,1001.02
2017-02-22T02:04:08.057Z,1000.94
2017-02-22T02:05:20.356Z,1000.91
2017-02-22T02:06:33.405Z,1000.84
2017-02-22T02:07:46.073Z,1000.79
2017-02-22T02:08:59.122Z,1000.77
2017-02-22T02:10:12.206Z,1000.72
2017-02-22T02:11:24.553Z,1000.7
2017-02-22T02:12:37.628Z,1000.63
2017-02-22T02:13:50.702Z,1000.55
2017-02-22T02:15:03.723Z,1000.55
2017-02-22T02:16:16.769Z,1000.53
2017-02-22T02:17:29.865Z,1000.46
2017-02-22T02:18:42.929Z,1000.36
2017-02-22T02:19:56.004Z,1000.33
2017-02-22T02:21:08.678Z,1000.38
2017-02-22T02:22:21.725Z,1000.35
2017-02-22T02:23:34.790Z,1000.27
2017-02-22T02:24:47.483Z,1000.24
2017-02-22T02:26:00.591Z,1000.2
2017-02-22T02:27:13.257Z,1000.17
2017-02-22T02:28:26.306Z,1000.12
2017-02-22T02:29:39.350Z,1000.1
2017-02-22T02:30:52.429Z,1000.06
2017-02-22T02:32:05.492Z,999.95
2017-02-22T02:33:18.189Z,999.94
2017-02-22T02:34:31.233Z,999.88
2017-02-22T02:35:44.278Z,999.89
2017-02-22T02:36:57.344Z,999.8
2017-02-22T02:38:10.012Z,999.72
2017-02-22T02:39:23.089Z,999.69
2017-02-22T02:40:36.158Z,999.62
2017-02-22T02:41:49.225Z,999.62
2017-02-22T02:43:01.858Z,999.57
2017-02-22T02:44:14.927Z,999.61
2017-02-22T02:45:28.012Z,999.54
2017-02-22T02:46:41.069Z,999.45
2017-02-22T02:47:53.783Z,999.38
2017-02-22T02:49:06.458Z,999.41
2017-02-22T02:50:19.504Z,999.42
2017-02-22T02:51:32.550Z,999.34
2017-02-22T02:52:45.626Z,999.32
2017-02-22T02:53:58.723Z,999.29
2017-02-22T02:55:11.783Z,999.2
2017-02-22T02:56:24.484Z,999.13
2017-02-22T02:57:37.605Z,999.06
2017-02-22T02:58:50.646Z,999.03
2017-02-22T03:00:03.347Z,998.98
2017-02-22T03:01:16.047Z,998.99
2017-02-22T03:02:29.089Z,998.97
2017-02-22T03:03:42.127Z,998.88
2017-02-22T03:04:55.208Z,998.84
2017-02-22T03:06:07.854Z,998.84
2017-02-22T03:07:20.899Z,998.82
2017-02-22T03:08:33.971Z,998.8
2017-02-22T03:09:47.040Z,998.73
2017-02-22T03:11:00.122Z,998.69
2017-02-22T03:12:13.206Z,998.72
2017-02-22T03:13:26.280Z,998.74
2017-02-22T03:14:39.346Z,998.67
2017-02-22T03:15:52.367Z,998.67
2017-02-22T03:17:05.459Z,998.51
2017-02-22T03:18:18.534Z,998.45
2017-02-22T03:19:31.589Z,998.49
2017-02-22T03:20:44.910Z,998.45
2017-02-22T03:21:57.989Z,998.46
2017-02-22T03:23:11.046Z,998.37
2017-02-22T03:24:24.116Z,998.36
2017-02-22T03:25:37.212Z,998.36
2017-02-22T03:26:50.304Z,998.34
2017-02-22T03:28:03.368Z,998.32
2017-02-22T03:29:16.449Z,998.28
2017-02-22T03:30:29.560Z,998.14
2017-02-22T03:31:42.667Z,998.15
2017-02-22T03:32:55.314Z,998.12
2017-02-22T03:34:08.383Z,998.14
2017-02-22T03:35:21.030Z,998.1
2017-02-22T03:36:34.096Z,998.03
2017-02-22T03:37:47.171Z,998.03
2017-02-22T03:39:00.259Z,997.97
2017-02-22T03:40:12.908Z,998.01
2017-02-22T03:41:25.575Z,997.98
2017-02-22T03:42:38.629Z,997.95
2017-02-22T03:43:51.667Z,997.93
2017-02-22T03:45:04.370Z,997.93
2017-02-22T03:46:17.431Z,997.87
2017-02-22T03:47:30.361Z,997.87
2017-02-22T03:48:43.030Z,997.86
2017-02-22T03:49:56.129Z,997.87
2017-02-22T03:51:08.774Z,997.86
2017-02-22T03:52:21.867Z,997.85
2017-02-22T03:53:34.920Z,997.72
2017-02-22T03:54:48.006Z,997.75
2017-02-22T03:56:01.081Z,997.7
2017-02-22T03:57:13.777Z,997.64
2017-02-22T03:58:26.844Z,997.6
2017-02-22T03:59:39.893Z,997.56
2017-02-22T04:00:52.567Z,997.49
2017-02-22T04:02:05.652Z,997.43
2017-02-22T04:03:18.751Z,997.4
2017-02-22T04:04:31.831Z,997.36
2017-02-22T04:05:44.877Z,997.31
2017-02-22T04:06:57.926Z,997.33
2017-02-22T04:08:11.015Z,997.23
2017-02-22T04:09:24.090Z,997.21
2017-02-22T04:10:37.157Z,997.18
2017-02-22T04:11:50.232Z,997.13
2017-02-22T04:13:02.943Z,997.11
2017-02-22T04:14:15.275Z,997.08
2017-02-22T04:15:28.345Z,997.02
2017-02-22T04:16:41.417Z,996.99
2017-02-22T04:17:54.102Z,996.91
2017-02-22T04:19:06.781Z,996.86
2017-02-22T04:20:19.858Z,996.84
2017-02-22T04:21:32.920Z,996.84
2017-02-22T04:22:45.982Z,996.78
2017-02-22T04:23:59.057Z,996.73
2017-02-22T04:25:11.727Z,996.74
2017-02-22T04:26:24.809Z,996.66
2017-02-22T04:27:37.881Z,996.65
2017-02-22T04:28:50.947Z,996.61
2017-02-22T04:30:04.016Z,996.54
2017-02-22T04:31:16.962Z,996.5
2017-02-22T04:32:30.115Z,996.49
2017-02-22T04:33:42.382Z,996.44
2017-02-22T04:34:55.442Z,996.43
2017-02-22T04:36:08.520Z,996.44
2017-02-22T04:37:21.569Z,996.39
2017-02-22T04:38:34.629Z,996.33
2017-02-22T04:39:47.685Z,996.33
2017-02-22T04:41:00.357Z,996.23
2017-02-22T04:42:13.046Z,996.18
2017-02-22T04:43:26.091Z,996.18
2017-02-22T04:44:39.166Z,996.16
2017-02-22T04:45:51.837Z,996.09
2017-02-22T04:47:04.889Z,996.05
2017-02-22T04:48:18.207Z,996.03
2017-02-22T04:49:31.246Z,995.99
2017-02-22T04:50:44.298Z,995.94
2017-02-22T04:51:57.342Z,995.85
2017-02-22T04:53:10.021Z,995.82
2017-02-22T04:54:23.130Z,995.69
2017-02-22T04:55:36.197Z,995.85
2017-02-22T04:56:49.250Z,995.71
2017-02-22T04:58:02.298Z,995.71
2017-02-22T04:59:15.342Z,995.67
2017-02-22T05:00:28.388Z,995.63
2017-02-22T05:01:41.066Z,995.63
2017-02-22T05:02:54.155Z,995.59
2017-02-22T05:04:07.198Z,995.47
2017-02-22T05:05:19.873Z,995.48
2017-02-22T05:06:32.943Z,995.38
2017-02-22T05:07:46.014Z,995.4
2017-02-22T05:08:58.685Z,995.37
2017-02-22T05:10:11.784Z,995.33
2017-02-22T05:11:24.828Z,995.3
2017-02-22T05:12:37.877Z,995.26
2017-02-22T05:13:50.922Z,995.22
2017-02-22T05:15:04.033Z,995.13
2017-02-22T05:16:17.094Z,995.21
2017-02-22T05:17:30.152Z,995.13
2017-02-22T05:18:43.205Z,995.08
2017-02-22T05:19:56.265Z,995.08
2017-02-22T05:21:09.321Z,995.06
2017-02-22T05:22:22.385Z,995.05
2017-02-22T05:23:35.436Z,995.05
2017-02-22T05:24:48.160Z,995.08
2017-02-22T05:26:01.219Z,995
2017-02-22T05:27:14.279Z,995
2017-02-22T05:28:27.343Z,994.89
2017-02-22T05:29:40.043Z,994.82
2017-02-22T05:30:53.392Z,994.88
2017-02-22T05:32:06.474Z,994.94
2017-02-22T05:33:19.531Z,994.93
2017-02-22T05:34:32.597Z,994.72
2017-02-22T05:35:45.663Z,994.8
2017-02-22T05:36:58.714Z,994.9
2017-02-22T05:38:11.390Z,994.85
2017-02-22T05:39:24.451Z,994.8
2017-02-22T05:40:37.504Z,994.69
2017-02-22T05:41:50.548Z,994.79
2017-02-22T05:43:03.621Z,994.68
2017-02-22T05:44:16.718Z,994.78
2017-02-22T05:45:29.413Z,994.7
2017-02-22T05:46:42.514Z,994.64
2017-02-22T05:47:55.223Z,994.59
2017-02-22T05:49:07.917Z,994.64
2017-02-22T05:50:20.624Z,994.63
2017-02-22T05:51:33.718Z,994.6
2017-02-22T05:52:46.411Z,994.56
2017-02-22T05:53:59.052Z,994.57
2017-02-22T05:55:12.107Z,994.48
2017-02-22T05:56:24.801Z,994.52
2017-02-22T05:57:37.844Z,994.53
2017-02-22T05:58:50.908Z,994.54
2017-02-22T06:00:03.979Z,994.52
2017-02-22T06:01:17.060Z,994.49
2017-02-22T06:02:30.122Z,994.47
2017-02-22T06:03:42.802Z,994.48
2017-02-22T06:04:55.847Z,994.46
2017-02-22T06:06:08.936Z,994.43
2017-02-22T06:07:22.015Z,994.4
2017-02-22T06:08:35.062Z,994.44
2017-02-22T06:09:48.124Z,994.49
2017-02-22T06:11:01.191Z,994.42
2017-02-22T06:12:14.266Z,994.37
2017-02-22T06:13:27.320Z,994.42
2017-02-22T06:14:40.411Z,994.38
2017-02-22T06:15:53.512Z,994.35
2017-02-22T06:17:06.203Z,994.36
2017-02-22T06:18:19.254Z,994.35
2017-02-22T06:19:31.927Z,994.35
2017-02-22T06:20:45.012Z,994.31
2017-02-22T06:21:58.087Z,994.3
2017-02-22T06:23:10.767Z,994.3
2017-02-22T06:24:23.485Z,994.27
2017-02-22T06:25:36.806Z,994.23
2017-02-22T06:26:49.873Z,994.27
2017-02-22T06:28:02.941Z,994.19
2017-02-22T06:29:15.990Z,994.21
2017-02-22T06:30:29.058Z,994.22
2017-02-22T06:31:41.754Z,994.21
2017-02-22T06:32:54.825Z,994.16
2017-02-22T06:34:07.871Z,994.22
2017-02-22T06:35:20.516Z,994.18
2017-02-22T06:36:33.545Z,994.21
2017-02-22T06:37:46.658Z,994.14
2017-02-22T06:38:59.354Z,994.19
2017-02-22T06:40:12.377Z,994.21
2017-02-22T06:41:25.725Z,994.21
2017-02-22T06:42:38.819Z,994.15
2017-02-22T06:43:51.866Z,994.2
2017-02-22T06:45:04.913Z,994.15
2017-02-22T06:46:18.031Z,994.15
2017-02-22T06:47:31.124Z,994.13
2017-02-22T06:48:43.791Z,994.13
2017-02-22T06:49:56.519Z,994.1
2017-02-22T06:51:09.246Z,994.17
2017-02-22T06:52:22.317Z,994.14
2017-02-22T06:53:35.007Z,994.11
2017-02-22T06:54:47.678Z,994.12
2017-02-22T06:56:00.739Z,994.15
2017-02-22T06:57:13.770Z,994.12
2017-02-22T06:58:26.440Z,994.11
2017-02-22T06:59:39.578Z,994.12
2017-02-22T07:00:52.262Z,994.09
2017-02-22T07:02:04.929Z,994.1
2017-02-22T07:03:17.618Z,994.13
2017-02-22T07:04:30.677Z,994.1
2017-02-22T07:05:43.391Z,994.04
2017-02-22T07:06:56.091Z,994.03
2017-02-22T07:08:08.779Z,994.02
2017-02-22T07:09:21.868Z,994.03
2017-02-22T07:10:34.971Z,994.02
2017-02-22T07:11:47.670Z,994.05
2017-02-22T07:13:00.756Z,994
2017-02-22T07:14:14.035Z,993.92
2017-02-22T07:15:27.100Z,993.9
2017-02-22T07:16:40.206Z,993.93
2017-02-22T07:17:53.268Z,993.92
2017-02-22T07:19:06.336Z,993.95
2017-02-22T07:20:19.006Z,993.89
2017-02-22T07:21:32.052Z,993.88
2017-02-22T07:22:44.760Z,993.91
2017-02-22T07:23:57.826Z,993.91
2017-02-22T07:25:10.872Z,993.96
2017-02-22T07:26:23.564Z,993.86
2017-02-22T07:27:36.620Z,993.87
2017-02-22T07:28:49.681Z,993.91
2017-02-22T07:30:02.361Z,993.92
2017-02-22T07:31:15.069Z,993.93
2017-02-22T07:32:28.104Z,993.9
2017-02-22T07:33:40.797Z,993.84
2017-02-22T07:34:53.889Z,993.9
2017-02-22T07:36:06.606Z,993.88
2017-02-22T07:37:19.260Z,993.87
2017-02-22T07:38:32.379Z,993.84
2017-02-22T07:39:45.091Z,993.82
2017-02-22T07:40:58.397Z,993.9
2017-02-22T07:42:11.466Z,993.8
2017-02-22T07:43:24.591Z,993.82
2017-02-22T07:44:37.264Z,993.8
2017-02-22T07:45:49.956Z,993.81
2017-02-22T07:47:02.651Z,993.83
2017-02-22T07:48:14.954Z,993.9
2017-02-22T07:49:28.070Z,993.79
2017-02-22T07:50:41.112Z,993.83
2017-02-22T07:51:53.785Z,993.88
2017-02-22T07:53:06.482Z,993.8
2017-02-22T07:54:19.175Z,993.8
2017-02-22T07:55:32.237Z,993.77
2017-02-22T07:56:45.320Z,993.83
2017-02-22T07:57:58.436Z,993.82
2017-02-22T07:59:11.582Z,993.75
2017-02-22T08:00:24.633Z,993.74
2017-02-22T08:01:37.703Z,993.76
2017-02-22T08:02:50.816Z,993.73
2017-02-22T08:04:03.483Z,993.77
2017-02-22T08:05:16.557Z,993.73
2017-02-22T08:06:29.636Z,993.68
2017-02-22T08:07:42.684Z,993.7
2017-02-22T08:08:55.374Z,993.65
2017-02-22T08:10:08.412Z,993.74
2017-02-22T08:11:21.474Z,993.59
2017-02-22T08:12:34.563Z,993.68
2017-02-22T08:13:47.632Z,993.65
2017-02-22T08:14:59.924Z,993.71
2017-02-22T08:16:13.006Z,993.71
2017-02-22T08:17:25.695Z,993.68
2017-02-22T08:18:38.370Z,993.7
2017-02-22T08:19:51.437Z,993.76
2017-02-22T08:21:04.515Z,993.73
2017-02-22T08:22:17.184Z,993.95
2017-02-22T08:23:30.250Z,993.68
2017-02-22T08:24:42.949Z,993.79
2017-02-22T08:25:56.013Z,993.75
2017-02-22T08:27:08.716Z,993.69
2017-02-22T08:28:21.763Z,993.88
2017-02-22T08:29:34.832Z,993.81
2017-02-22T08:30:47.579Z,993.78
2017-02-22T08:32:00.652Z,993.83
2017-02-22T08:33:13.320Z,993.79
2017-02-22T08:34:26.413Z,993.77
2017-02-22T08:35:39.505Z,993.79
2017-02-22T08:36:52.597Z,993.76
2017-02-22T08:38:05.259Z,993.78
2017-02-22T08:39:18.332Z,993.82
2017-02-22T08:40:31.413Z,993.75
2017-02-22T08:41:44.467Z,993.71
2017-02-22T08:42:57.524Z,993.79
2017-02-22T08:44:10.228Z,993.7
2017-02-22T08:45:22.955Z,993.72
2017-02-22T08:46:35.650Z,993.63
2017-02-22T08:47:48.319Z,993.64
2017-02-22T08:49:01.398Z,993.67
2017-02-22T08:50:14.466Z,993.62
2017-02-22T08:51:27.550Z,993.61
2017-02-22T08:52:40.604Z,993.63
2017-02-22T08:53:53.654Z,993.66
2017-02-22T08:55:06.728Z,993.7
2017-02-22T08:56:19.395Z,993.61
2017-02-22T08:57:32.106Z,993.74
2017-02-22T08:58:45.206Z,993.71
2017-02-22T08:59:58.307Z,993.53
2017-02-22T09:01:11.045Z,993.82
2017-02-22T09:02:23.740Z,993.73
2017-02-22T09:03:36.793Z,993.68
2017-02-22T09:04:49.815Z,993.73
2017-02-22T09:06:02.878Z,993.68
2017-02-22T09:07:15.556Z,993.43
2017-02-22T09:08:28.674Z,993.66
2017-02-22T09:09:41.736Z,993.58
2017-02-22T09:10:54.797Z,993.7
2017-02-22T09:12:07.861Z,993.74
2017-02-22T09:13:20.535Z,993.72
2017-02-22T09:14:33.585Z,993.69
2017-02-22T09:15:46.276Z,993.69
2017-02-22T09:16:59.390Z,993.67
2017-02-22T09:18:12.467Z,993.73
2017-02-22T09:19:25.203Z,993.79
2017-02-22T09:20:38.252Z,993.63
2017-02-22T09:21:51.330Z,993.65
2017-02-22T09:23:04.023Z,993.66
2017-02-22T09:24:16.926Z,993.51
2017-02-22T09:25:29.973Z,993.6
2017-02-22T09:26:43.041Z,993.61
2017-02-22T09:27:56.132Z,993.57
2017-02-22T09:29:09.196Z,993.54
2017-02-22T09:30:22.303Z,993.69
2017-02-22T09:31:35.387Z,993.58
2017-02-22T09:32:48.440Z,993.59
2017-02-22T09:34:01.138Z,993.34
2017-02-22T09:35:13.836Z,993.54
2017-02-22T09:36:26.507Z,993.63
2017-02-22T09:37:39.179Z,993.53
2017-02-22T09:38:52.291Z,993.58
2017-02-22T09:40:05.616Z,993.43
2017-02-22T09:41:18.294Z,993.54
2017-02-22T09:42:30.986Z,993.48
2017-02-22T09:43:44.083Z,993.62
2017-02-22T09:44:57.149Z,993.54
2017-02-22T09:46:10.195Z,993.55
2017-02-22T09:47:23.284Z,993.45
2017-02-22T09:48:36.358Z,993.45
2017-02-22T09:49:49.460Z,993.42
2017-02-22T09:51:02.497Z,993.39
2017-02-22T09:52:15.157Z,993.33
2017-02-22T09:53:28.221Z,993.31
2017-02-22T09:54:41.372Z,993.44
2017-02-22T09:55:54.087Z,993.45
2017-02-22T09:57:06.425Z,993.35
2017-02-22T09:58:19.506Z,993.26
2017-02-22T09:59:32.567Z,993.33
2017-02-22T10:00:45.649Z,993.29
2017-02-22T10:01:58.173Z,993.39
2017-02-22T10:03:11.284Z,993.33
2017-02-22T10:04:24.328Z,993.2
2017-02-22T10:05:37.372Z,993.31
2017-02-22T10:06:50.430Z,993.27
2017-02-22T10:08:03.499Z,993.21
2017-02-22T10:09:16.612Z,993.37
2017-02-22T10:10:29.687Z,993.24
2017-02-22T10:11:42.778Z,993.25
2017-02-22T10:12:55.860Z,993.16
2017-02-22T10:14:08.951Z,993.22
2017-02-22T10:15:21.638Z,993.11
2017-02-22T10:16:34.684Z,993.11
2017-02-22T10:17:47.741Z,993.09
2017-02-22T10:19:00.828Z,993.27
2017-02-22T10:20:13.511Z,993.14
2017-02-22T10:21:26.600Z,993.17
2017-02-22T10:22:39.671Z,993.15
2017-02-22T10:23:52.351Z,993.23
2017-02-22T10:25:05.413Z,993.11
2017-02-22T10:26:17.700Z,993.07
2017-02-22T10:27:30.785Z,993.15
2017-02-22T10:28:43.843Z,993.31
2017-02-22T10:29:56.952Z,992.99
2017-02-22T10:31:10.037Z,993.08
2017-02-22T10:32:22.742Z,993.07
2017-02-22T10:33:35.784Z,993.13
2017-02-22T10:34:48.882Z,992.98
2017-02-22T10:36:01.972Z,993.08
2017-02-22T10:37:15.015Z,993.09
2017-02-22T10:38:27.737Z,993.06
2017-02-22T10:39:40.397Z,992.97
2017-02-22T10:40:53.088Z,993.07
2017-02-22T10:42:06.181Z,993.18
2017-02-22T10:43:19.243Z,992.93
2017-02-22T10:44:32.289Z,993.02
2017-02-22T10:45:44.961Z,992.91
2017-02-22T10:46:58.022Z,992.92
2017-02-22T10:48:11.151Z,992.98
2017-02-22T10:49:23.811Z,992.92
2017-02-22T10:50:36.871Z,992.93
2017-02-22T10:51:49.927Z,993.02
2017-02-22T10:53:03.014Z,992.96
2017-02-22T10:54:15.712Z,993
2017-02-22T10:55:28.779Z,993
2017-02-22T10:56:41.829Z,993.01
2017-02-22T10:57:54.900Z,992.95
2017-02-22T10:59:07.970Z,992.94
2017-02-22T11:00:20.690Z,993.11
2017-02-22T11:01:33.780Z,992.91
2017-02-22T11:02:46.091Z,993.04
2017-02-22T11:03:58.801Z,992.89
2017-02-22T11:05:11.880Z,992.93
2017-02-22T11:06:24.206Z,992.95
2017-02-22T11:07:37.285Z,992.91
2017-02-22T11:08:49.963Z,992.98
2017-02-22T11:10:02.989Z,992.9
2017-02-22T11:11:15.301Z,992.95
2017-02-22T11:12:28.376Z,992.96
2017-02-22T11:13:41.425Z,992.96
2017-02-22T11:14:54.494Z,992.97
2017-02-22T11:16:07.172Z,992.9
2017-02-22T11:17:19.481Z,992.98
2017-02-22T11:18:32.555Z,992.95
2017-02-22T11:19:45.628Z,992.93
2017-02-22T11:20:58.716Z,992.9
2017-02-22T11:22:11.811Z,993.05
2017-02-22T11:23:24.114Z,993.02
2017-02-22T11:24:37.215Z,993.14
2017-02-22T11:25:49.960Z,993.02
2017-02-22T11:27:03.052Z,992.91
2017-02-22T11:28:16.102Z,992.89
2017-02-22T11:29:29.169Z,992.92
2017-02-22T11:30:42.243Z,992.94
2017-02-22T11:31:54.540Z,992.92
2017-02-22T11:33:07.234Z,992.87
2017-02-22T11:34:19.894Z,992.88
2017-02-22T11:35:32.966Z,992.85
2017-02-22T11:36:46.048Z,992.92
2017-02-22T11:37:58.748Z,992.88
2017-02-22T11:39:11.878Z,993.02
2017-02-22T11:40:25.174Z,992.84
2017-02-22T11:41:37.834Z,992.78
2017-02-22T11:42:50.504Z,992.9
2017-02-22T11:44:03.587Z,992.9
2017-02-22T11:45:16.643Z,992.94
2017-02-22T11:46:28.937Z,992.92
2017-02-22T11:47:42.036Z,992.88
2017-02-22T11:48:54.728Z,992.93
2017-02-22T11:50:07.406Z,992.85
2017-02-22T11:51:20.445Z,992.86
2017-02-22T11:52:33.523Z,992.94
2017-02-22T11:53:46.571Z,992.95
2017-02-22T11:54:59.664Z,992.86
2017-02-22T11:56:12.371Z,992.97
2017-02-22T11:57:25.452Z,992.86
2017-02-22T11:58:38.500Z,993.03
2017-02-22T11:59:51.188Z,992.81
2017-02-22T12:01:03.093Z,993.03
2017-02-22T12:02:15.780Z,992.97
2017-02-22T12:03:28.833Z,993.01
2017-02-22T12:04:41.900Z,992.84
2017-02-22T12:05:54.217Z,992.94
2017-02-22T12:07:07.344Z,992.86
2017-02-22T12:08:20.017Z,992.86
2017-02-22T12:09:33.093Z,992.96
2017-02-22T12:10:45.785Z,992.87
2017-02-22T12:11:58.451Z,992.76
2017-02-22T12:13:11.522Z,992.83
2017-02-22T12:14:24.266Z,992.82
2017-02-22T12:15:37.388Z,992.9
2017-02-22T12:16:50.440Z,992.93
2017-02-22T12:18:03.759Z,992.87
2017-02-22T12:19:16.809Z,992.89
2017-02-22T12:20:29.575Z,992.88
2017-02-22T12:21:42.700Z,992.79
2017-02-22T12:22:55.407Z,992.84
2017-02-22T12:24:08.090Z,992.83
2017-02-22T12:25:21.138Z,992.78
2017-02-22T12:26:34.195Z,992.87
2017-02-22T12:27:47.250Z,992.89
2017-02-22T12:29:00.351Z,992.75
2017-02-22T12:30:12.692Z,992.79
2017-02-22T12:31:25.377Z,992.72
2017-02-22T12:32:38.473Z,992.67
2017-02-22T12:33:51.150Z,992.73
2017-02-22T12:35:03.825Z,992.76
2017-02-22T12:36:16.477Z,992.78
2017-02-22T12:37:29.544Z,992.82
2017-02-22T12:38:42.235Z,992.77
2017-02-22T12:39:54.900Z,992.94
2017-02-22T12:41:07.957Z,992.84
2017-02-22T12:42:20.651Z,992.86
2017-02-22T12:43:33.725Z,992.87
2017-02-22T12:44:46.385Z,992.83
2017-02-22T12:45:58.692Z,992.77
2017-02-22T12:47:11.785Z,992.72
2017-02-22T12:48:24.832Z,992.77
2017-02-22T12:49:37.543Z,992.8
2017-02-22T12:50:50.243Z,992.64
2017-02-22T12:52:03.318Z,992.74
2017-02-22T12:53:15.615Z,992.73
2017-02-22T12:54:28.686Z,992.65
2017-02-22T12:55:41.756Z,992.71
2017-02-22T12:56:54.419Z,992.66
2017-02-22T12:58:07.562Z,992.56
2017-02-22T12:59:20.232Z,992.54
2017-02-22T13:00:32.928Z,992.54
2017-02-22T13:01:45.237Z,992.58
2017-02-22T13:02:58.299Z,992.64
2017-02-22T13:04:11.370Z,992.55
2017-02-22T13:05:24.427Z,992.59
2017-02-22T13:06:37.546Z,992.56
2017-02-22T13:07:50.628Z,992.6
2017-02-22T13:09:03.299Z,992.53
2017-02-22T13:10:16.398Z,992.59
2017-02-22T13:11:29.493Z,992.64
2017-02-22T13:12:42.598Z,992.6
2017-02-22T13:13:54.886Z,992.55
2017-02-22T13:15:07.561Z,992.62
2017-02-22T13:16:20.283Z,992.63
2017-02-22T13:17:33.355Z,992.79
2017-02-22T13:18:46.494Z,992.65
2017-02-22T13:19:58.770Z,992.61
2017-02-22T13:21:11.836Z,992.44
2017-02-22T13:22:24.915Z,992.6
2017-02-22T13:23:37.957Z,992.57
2017-02-22T13:24:51.031Z,992.63
2017-02-22T13:26:03.327Z,992.62
2017-02-22T13:27:15.628Z,992.54
2017-02-22T13:28:28.720Z,992.51
2017-02-22T13:29:41.804Z,992.57
2017-02-22T13:30:54.862Z,992.52
2017-02-22T13:32:07.532Z,992.51
2017-02-22T13:33:20.224Z,992.55
2017-02-22T13:34:33.319Z,992.53
2017-02-22T13:35:45.641Z,992.54
2017-02-22T13:36:58.688Z,992.54
2017-02-22T13:38:11.787Z,992.55
2017-02-22T13:39:24.857Z,992.51
2017-02-22T13:40:37.927Z,992.54
2017-02-22T13:41:50.995Z,992.44
2017-02-22T13:43:03.713Z,992.56
2017-02-22T13:44:16.787Z,992.55
2017-02-22T13:45:29.886Z,992.5
2017-02-22T13:46:42.572Z,992.45
2017-02-22T13:47:55.634Z,992.53
2017-02-22T13:49:08.324Z,992.4
2017-02-22T13:50:21.410Z,992.51
2017-02-22T13:51:34.505Z,992.53
2017-02-22T13:52:47.213Z,992.58
2017-02-22T13:54:00.300Z,992.6
2017-02-22T13:55:12.995Z,992.52
2017-02-22T13:56:26.027Z,992.47
2017-02-22T13:57:38.701Z,992.51
2017-02-22T13:58:51.767Z,992.59
2017-02-22T14:00:04.815Z,992.48
2017-02-22T14:01:17.476Z,992.5
2017-02-22T14:02:30.550Z,992.52
2017-02-22T14:03:43.650Z,992.52
2017-02-22T14:04:56.319Z,992.46
2017-02-22T14:06:08.619Z,992.38
2017-02-22T14:07:21.683Z,992.38
2017-02-22T14:08:34.804Z,992.27
2017-02-22T14:09:47.478Z,992.25
2017-02-22T14:11:00.188Z,992.3
2017-02-22T14:12:12.488Z,992.38
2017-02-22T14:13:25.162Z,992.3
2017-02-22T14:14:38.235Z,992.31
2017-02-22T14:15:51.296Z,992.31
2017-02-22T14:17:03.226Z,992.27
2017-02-22T14:18:16.563Z,992.28
2017-02-22T14:19:29.637Z,992.3
2017-02-22T14:20:42.709Z,992.22
2017-02-22T14:21:55.804Z,992.25
2017-02-22T14:23:08.879Z,992.28
2017-02-22T14:24:21.979Z,992.24
2017-02-22T14:25:35.051Z,992.29
2017-02-22T14:26:47.717Z,992.22
2017-02-22T14:28:00.767Z,992.21
2017-02-22T14:29:13.466Z,992.21
2017-02-22T14:30:26.578Z,992.11
2017-02-22T14:31:39.647Z,992.05
2017-02-22T14:32:51.976Z,992.16
2017-02-22T14:34:05.085Z,992.25
2017-02-22T14:35:17.757Z,992.12
2017-02-22T14:36:30.837Z,992.2
2017-02-22T14:37:43.930Z,992.15
2017-02-22T14:38:56.244Z,992.19
2017-02-22T14:40:09.621Z,992.01
2017-02-22T14:41:22.692Z,992.05
2017-02-22T14:42:35.756Z,992.06
2017-02-22T14:43:48.814Z,992.04
2017-02-22T14:45:01.915Z,992.06
2017-02-22T14:46:14.993Z,992.08
2017-02-22T14:47:28.076Z,992.11
2017-02-22T14:48:41.135Z,992.05
2017-02-22T14:49:54.192Z,992.05
2017-02-22T14:51:07.277Z,992.09
2017-02-22T14:52:20.348Z,992.14
2017-02-22T14:53:33.005Z,992.17
2017-02-22T14:54:45.653Z,992.21
2017-02-22T14:55:58.724Z,992.23
2017-02-22T14:57:11.809Z,992.11
2017-02-22T14:58:24.902Z,992.13
2017-02-22T14:59:37.959Z,992.06
2017-02-22T15:00:51.106Z,992.11
2017-02-22T15:02:03.431Z,992.16
2017-02-22T15:03:15.744Z,992.14
2017-02-22T15:04:28.797Z,992.14
2017-02-22T15:05:41.505Z,992.24
2017-02-22T15:06:54.602Z,992.2
2017-02-22T15:08:07.660Z,992.21